Time;durP1;ratioP1;P1;durP2;ratioP2;P2;SDS_P1;SDS_P2;PMS_P1;PMS_P2;Temp;Humidity;BMP_temperature;BMP_pressure;BME280_temperature;BME280_humidity;BME280_pressure;Samples;Min_cycle;Max_cycle;Signal;HPM_P1;HPM_P2
2022/11/08 00:01:33;;;;;;;5.18;1.92;;;;;;;8.75;100.00;101263.34;5011624;28;20171;-72
2022/11/08 00:04:00;;;;;;;3.17;2.22;;;;;;;8.75;100.00;101256.41;5013583;28;20029;-71
2022/11/08 00:14:39;;;;;;;4.85;2.20;;;;;;;8.68;100.00;101255.19;5013431;28;20036;-72
2022/11/08 00:17:04;;;;;;;2.20;1.42;;;;;;;8.65;100.00;101256.25;5008310;28;20038;-71
2022/11/08 00:19:29;;;;;;;3.53;2.20;;;;;;;8.64;100.00;101256.34;5013886;28;20062;-71
2022/11/08 00:21:55;;;;;;;4.68;1.90;;;;;;;8.61;100.00;101256.56;5014445;28;20120;-72
2022/11/08 00:24:20;;;;;;;3.63;1.88;;;;;;;8.60;100.00;101253.16;5009719;28;20098;-72
2022/11/08 00:26:46;;;;;;;3.58;1.92;;;;;;;8.62;100.00;101256.47;5018830;28;20447;-72
2022/11/08 00:29:11;;;;;;;4.47;1.75;;;;;;;8.61;100.00;101252.22;5013006;28;20116;-71
2022/11/08 00:31:36;;;;;;;5.45;3.10;;;;;;;8.56;100.00;101251.72;5012312;28;20382;-72
2022/11/08 00:34:02;;;;;;;7.63;2.72;;;;;;;8.42;100.00;101261.47;5007733;28;20036;-72
2022/11/08 00:36:27;;;;;;;3.83;2.17;;;;;;;8.34;100.00;101256.84;5015698;28;20030;-72
2022/11/08 00:38:53;;;;;;;4.28;2.83;;;;;;;8.27;100.00;101261.59;5009642;28;20117;-71
2022/11/08 00:41:19;;;;;;;7.00;2.97;;;;;;;8.19;100.00;101263.91;5012922;28;20033;-72
2022/11/08 00:43:44;;;;;;;5.43;3.00;;;;;;;8.14;100.00;101260.81;5003758;28;20133;-71
2022/11/08 00:46:10;;;;;;;9.32;4.30;;;;;;;8.08;100.00;101257.81;5017425;28;20033;-72
2022/11/08 00:48:36;;;;;;;6.80;4.25;;;;;;;7.91;100.00;101264.22;5007253;28;20030;-72
2022/11/08 00:51:06;;;;;;;9.18;3.88;;;;;;;7.77;100.00;101257.41;5010258;28;20485;-71
2022/11/08 00:53:32;;;;;;;7.50;3.30;;;;;;;7.81;100.00;101255.44;5008481;28;20038;-72
2022/11/08 00:56:03;;;;;;;4.88;2.88;;;;;;;7.91;100.00;101269.41;5013171;28;20445;-73
2022/11/08 00:58:28;;;;;;;3.08;1.90;;;;;;;8.03;100.00;101263.38;5011013;28;20026;-71
2022/11/08 01:00:55;;;;;;;6.53;2.60;;;;;;;8.07;100.00;101267.38;5014977;28;20492;-72
2022/11/08 01:03:21;;;;;;;3.70;2.10;;;;;;;8.12;100.00;101262.69;5006107;28;20441;-71
2022/11/08 01:05:47;;;;;;;5.63;2.05;;;;;;;8.19;100.00;101260.50;5010706;28;20484;-72
2022/11/08 01:08:14;;;;;;;7.90;2.00;;;;;;;8.23;100.00;101254.97;5013440;28;20033;-73
2022/11/08 01:10:41;;;;;;;2.17;1.52;;;;;;;8.22;100.00;101257.69;5008024;28;20014;-72
2022/11/08 01:13:07;;;;;;;4.82;2.00;;;;;;;8.25;100.00;101260.06;5009858;28;20029;-72
2022/11/08 01:15:35;;;;;;;5.93;1.88;;;;;;;8.30;100.00;101255.38;5011546;28;20033;-71
2022/11/08 01:18:01;;;;;;;3.47;1.75;;;;;;;8.35;100.00;101247.28;5010383;28;20112;-71
2022/11/08 01:20:27;;;;;;;4.50;2.08;;;;;;;8.30;100.00;101244.97;5010432;28;20184;-72
2022/11/08 01:22:52;;;;;;;5.65;3.60;;;;;;;8.14;100.00;101250.44;5003745;28;20117;-72
2022/11/08 01:25:17;;;;;;;7.95;4.43;;;;;;;7.95;100.00;101245.75;5013487;28;20041;-72
2022/11/08 01:27:43;;;;;;;8.50;5.05;;;;;;;7.80;100.00;101235.59;5009009;28;20025;-72
2022/11/08 01:30:09;;;;;;;8.55;6.05;;;;;;;7.63;100.00;101229.81;5007232;28;20021;-72
2022/11/08 01:32:34;;;;;;;10.23;6.18;;;;;;;7.58;100.00;101231.09;5013624;28;20026;-72
2022/11/08 01:35:00;;;;;;;9.25;7.05;;;;;;;7.44;100.00;101224.28;5009870;28;20111;-71
2022/11/08 01:37:25;;;;;;;10.02;5.40;;;;;;;7.37;100.00;101220.44;5009803;28;20030;-71
2022/11/08 01:39:50;;;;;;;7.07;5.10;;;;;;;7.44;100.00;101224.28;5009813;28;20031;-72
2022/11/08 01:42:16;;;;;;;10.07;4.60;;;;;;;7.49;100.00;101217.03;5009954;28;20330;-71
2022/11/08 01:45:01;;;;;;;4.70;2.70;;;;;;;7.68;100.00;101226.09;5011781;28;20029;-71
2022/11/08 01:47:26;;;;;;;4.20;2.17;;;;;;;7.88;100.00;101217.75;5010090;28;20337;-71
2022/11/08 01:49:56;;;;;;;4.45;2.28;;;;;;;7.98;100.00;101219.56;5006606;28;20031;-71
2022/11/08 01:52:42;;;;;;;4.20;1.90;;;;;;;7.98;100.00;101209.19;5017291;28;20025;-72
2022/11/08 01:55:08;;;;;;;3.17;1.77;;;;;;;8.06;100.00;101206.03;5010743;28;20125;-71
2022/11/08 01:58:02;;;;;;;3.75;2.10;;;;;;;8.06;100.00;101200.84;5006849;28;20369;-71
2022/11/08 02:00:27;;;;;;;5.43;2.38;;;;;;;8.08;100.00;101206.75;5013131;28;20037;-72
2022/11/08 02:02:58;;;;;;;6.25;2.05;;;;;;;8.09;100.00;101204.97;5011374;28;20041;-71
2022/11/08 02:05:25;;;;;;;5.45;2.10;;;;;;;8.07;100.00;101205.09;5006556;28;20092;-72
2022/11/08 02:07:54;;;;;;;4.72;2.20;;;;;;;8.09;100.00;101202.38;5007469;28;20087;-71
2022/11/08 02:10:23;;;;;;;5.80;2.05;;;;;;;8.06;100.00;101210.38;5007935;28;20021;-71
2022/11/08 02:12:51;;;;;;;7.88;2.50;;;;;;;8.07;100.00;101199.91;5008232;28;20095;-71
2022/11/08 02:15:21;;;;;;;4.50;1.92;;;;;;;8.06;100.00;101200.84;5007187;28;20034;-72
2022/11/08 02:17:46;;;;;;;4.88;2.65;;;;;;;8.06;100.00;101195.66;5006677;28;20030;-72
2022/11/08 02:20:12;;;;;;;5.13;2.58;;;;;;;8.01;100.00;101189.16;5005001;28;20733;-72
2022/11/08 02:22:45;;;;;;;5.40;2.45;;;;;;;7.96;100.00;101194.69;5011252;28;21445;-72
2022/11/08 02:25:12;;;;;;;5.25;1.98;;;;;;;7.96;100.00;101192.91;5004812;28;20397;-72
2022/11/08 02:27:37;;;;;;;3.83;2.17;;;;;;;7.94;100.00;101199.97;5010081;28;20030;-72
2022/11/08 02:30:03;;;;;;;4.53;2.38;;;;;;;7.90;100.00;101197.69;5013541;28;20044;-72
2022/11/08 02:32:39;;;;;;;4.03;2.58;;;;;;;7.88;100.00;101197.81;5023982;28;20038;-72
2022/11/08 02:35:11;;;;;;;3.22;2.03;;;;;;;7.86;100.00;101194.50;5005980;28;20042;-72
2022/11/08 02:37:36;;;;;;;5.72;2.45;;;;;;;7.84;100.00;101200.72;5014173;28;20026;-71
2022/11/08 02:40:03;;;;;;;4.93;2.35;;;;;;;7.85;100.00;101192.00;5001994;28;20393;-71
2022/11/08 02:42:29;;;;;;;6.70;2.15;;;;;;;7.87;100.00;101195.31;5006112;28;20046;-72
2022/11/08 02:44:54;;;;;;;4.13;2.13;;;;;;;7.88;100.00;101191.78;5015642;28;20025;-73
2022/11/08 02:47:20;;;;;;;3.45;1.63;;;;;;;7.87;100.00;101197.91;5005116;28;20647;-72
2022/11/08 02:49:45;;;;;;;4.30;2.25;;;;;;;7.88;100.00;101199.56;5011456;28;20061;-72
2022/11/08 02:52:11;;;;;;;5.63;2.28;;;;;;;7.88;100.00;101202.19;5006058;28;20034;-72
2022/11/08 02:54:37;;;;;;;6.72;2.22;;;;;;;7.85;100.00;101197.19;5009306;28;20130;-72
2022/11/08 02:57:02;;;;;;;3.20;2.08;;;;;;;7.83;100.00;101193.88;5006565;28;20030;-73
2022/11/08 02:59:28;;;;;;;5.13;2.92;;;;;;;7.86;100.00;101201.44;5005530;28;20699;-74
2022/11/08 03:01:53;;;;;;;4.05;1.95;;;;;;;7.86;100.00;101199.69;5014314;28;20036;-73
2022/11/08 03:04:18;;;;;;;5.47;2.13;;;;;;;7.81;100.00;101195.75;5007300;28;20027;-72
2022/11/08 03:06:44;;;;;;;7.30;2.55;;;;;;;7.83;100.00;101193.88;5009183;28;20044;-71
2022/11/08 03:09:10;;;;;;;4.40;1.95;;;;;;;7.82;100.00;101197.41;5011537;28;20125;-72
2022/11/08 03:11:36;;;;;;;4.05;2.28;;;;;;;7.82;100.00;101190.47;5013034;28;20030;-72
2022/11/08 03:14:01;;;;;;;5.57;2.10;;;;;;;7.81;100.00;101199.19;5009613;28;20036;-72
2022/11/08 03:16:26;;;;;;;5.35;2.25;;;;;;;7.81;100.00;101198.34;5008392;28;20037;-73
2022/11/08 03:18:52;;;;;;;4.85;2.20;;;;;;;7.80;100.00;101199.28;5014180;28;20376;-74
2022/11/08 03:21:17;;;;;;;3.88;2.35;;;;;;;7.78;100.00;101190.78;5006383;28;20041;-73
2022/11/08 03:23:43;;;;;;;5.63;1.83;;;;;;;7.76;100.00;101198.69;5014423;28;20033;-73
2022/11/08 03:26:08;;;;;;;4.40;2.20;;;;;;;7.75;100.00;101203.97;5010031;28;20057;-74
2022/11/08 03:28:33;;;;;;;4.07;1.73;;;;;;;7.70;100.00;101209.47;5009069;28;20492;-73
2022/11/08 03:30:59;;;;;;;7.18;2.42;;;;;;;7.68;100.00;101202.75;5010460;28;20026;-73
2022/11/08 03:33:24;;;;;;;4.25;2.28;;;;;;;7.66;100.00;101203.69;5014442;28;20040;-73
2022/11/08 03:35:51;;;;;;;4.03;2.10;;;;;;;7.68;100.00;101205.34;5012435;28;20033;-73
2022/11/08 03:38:17;;;;;;;6.20;2.03;;;;;;;7.62;100.00;101202.22;5008921;28;20124;-73
2022/11/08 03:40:44;;;;;;;4.65;2.72;;;;;;;7.64;100.00;101199.53;5005829;28;20026;-73
2022/11/08 03:43:09;;;;;;;6.00;2.63;;;;;;;7.62;100.00;101204.81;5008522;28;20038;-74
2022/11/08 03:45:35;;;;;;;5.88;2.30;;;;;;;7.64;100.00;101210.75;5010031;28;20405;-73
2022/11/08 03:48:00;;;;;;;3.53;2.28;;;;;;;7.65;100.00;101204.63;5008495;28;20069;-73
2022/11/08 03:50:26;;;;;;;5.10;2.00;;;;;;;7.61;100.00;101203.16;5005144;28;20111;-72
2022/11/08 03:52:55;;;;;;;6.03;2.30;;;;;;;7.61;100.00;101205.75;5010564;28;20840;-72
2022/11/08 03:55:23;;;;;;;4.05;1.85;;;;;;;7.61;100.00;101210.94;5010633;28;20033;-72
2022/11/08 03:57:50;;;;;;;4.25;1.88;;;;;;;7.59;100.00;101210.22;5010358;28;20405;-72
2022/11/08 04:00:18;;;;;;;5.10;1.70;;;;;;;7.59;100.00;101205.03;5008963;28;20044;-72
2022/11/08 04:02:44;;;;;;;3.20;1.48;;;;;;;7.57;100.00;101209.50;5010063;28;20481;-73
2022/11/08 04:05:12;;;;;;;5.43;1.92;;;;;;;7.58;100.00;101205.97;5011074;28;20132;-72
2022/11/08 04:07:38;;;;;;;4.32;1.73;;;;;;;7.55;100.00;101200.22;5016763;28;20075;-72
2022/11/08 04:10:05;;;;;;;3.72;1.70;;;;;;;7.53;100.00;101208.09;5009353;28;20033;-72
2022/11/08 04:15:18;;;;;;;6.47;2.30;;;;;;;7.45;100.00;101205.19;5009413;28;20122;-73
2022/11/08 04:23:21;;;;;;;6.90;3.20;;;;;;;7.44;100.00;101200.94;5007938;28;20123;-72
2022/11/08 04:25:56;;;;;;;4.57;2.25;;;;;;;7.39;100.00;101200.44;5006290;28;20033;-73
2022/11/08 04:28:24;;;;;;;3.60;1.55;;;;;;;7.41;100.00;101195.16;5009355;28;20477;-72
2022/11/08 04:30:57;;;;;;;8.05;2.72;;;;;;;7.41;100.00;101192.56;5008719;28;20041;-73
2022/11/08 04:33:23;;;;;;;4.80;2.53;;;;;;;7.39;100.00;101197.00;5009878;28;20045;-72
2022/11/08 04:35:51;;;;;;;6.28;2.42;;;;;;;7.31;100.00;101185.41;5007379;28;20046;-72
2022/11/08 04:38:17;;;;;;;5.43;2.35;;;;;;;7.27;100.00;101190.91;5008597;28;20486;-72
2022/11/08 04:40:43;;;;;;;8.20;2.67;;;;;;;7.26;100.00;101199.63;5010771;28;20030;-72
2022/11/08 04:43:09;;;;;;;6.45;2.40;;;;;;;7.24;100.00;101193.69;5003933;28;20037;-72
2022/11/08 04:45:34;;;;;;;9.80;2.63;;;;;;;7.25;100.00;101192.78;5013055;28;20400;-72
2022/11/08 04:48:00;;;;;;;4.18;1.98;;;;;;;7.26;100.00;101194.44;5009765;28;20037;-73
2022/11/08 04:50:25;;;;;;;8.98;2.97;;;;;;;7.22;100.00;101203.34;5007979;28;20388;-74
2022/11/08 04:52:52;;;;;;;4.95;2.55;;;;;;;7.15;100.00;101200.34;5008061;28;20034;-73
2022/11/08 04:55:18;;;;;;;8.57;2.50;;;;;;;7.12;100.00;101200.56;5009855;28;20481;-72
2022/11/08 04:57:44;;;;;;;6.72;2.85;;;;;;;7.07;100.00;101197.47;5009511;28;20124;-73
2022/11/08 05:00:10;;;;;;;7.25;2.70;;;;;;;7.03;100.00;101197.78;5008189;28;20128;-73
2022/11/08 05:02:36;;;;;;;3.53;2.03;;;;;;;7.02;100.00;101190.94;5010024;28;20048;-74
2022/11/08 05:05:01;;;;;;;6.18;2.35;;;;;;;7.04;100.00;101199.44;5010447;28;20030;-74
2022/11/08 05:07:28;;;;;;;4.85;2.28;;;;;;;7.07;100.00;101199.22;5014117;28;20057;-73
2022/11/08 05:09:54;;;;;;;5.75;2.65;;;;;;;7.07;100.00;101191.47;5005606;28;20027;-73
2022/11/08 05:12:20;;;;;;;3.92;2.55;;;;;;;7.12;100.00;101199.72;5004367;28;20433;-73
2022/11/08 05:14:45;;;;;;;4.47;2.03;;;;;;;7.14;100.00;101200.44;5013391;28;20120;-73
2022/11/08 05:17:11;;;;;;;5.43;2.63;;;;;;;7.15;100.00;101196.91;5008874;28;20030;-73
2022/11/08 05:25:05;;;;;;;5.97;2.03;;;;;;;7.18;100.00;101191.53;5009155;28;20104;-72
2022/11/08 05:27:30;;;;;;;4.10;1.77;;;;;;;7.16;100.00;101188.22;5005373;28;20030;-72
2022/11/08 05:29:56;;;;;;;3.35;1.85;;;;;;;7.14;100.00;101192.66;5009334;28;20029;-73
2022/11/08 05:32:21;;;;;;;4.72;1.70;;;;;;;7.12;100.00;101186.75;5010726;28;20034;-72
2022/11/08 05:34:46;;;;;;;6.68;2.10;;;;;;;7.12;100.00;101191.94;5012975;28;20037;-73
2022/11/08 05:37:12;;;;;;;5.22;2.03;;;;;;;7.11;100.00;101187.69;5013157;28;20133;-73
2022/11/08 05:39:37;;;;;;;5.18;1.45;;;;;;;7.11;100.00;101190.28;5009445;28;20027;-73
2022/11/08 05:42:04;;;;;;;7.15;2.33;;;;;;;7.12;100.00;101189.34;5009532;28;20055;-74
2022/11/08 05:44:30;;;;;;;4.57;1.77;;;;;;;7.11;100.00;101193.72;5002820;28;20037;-73
2022/11/08 05:46:55;;;;;;;4.75;2.20;;;;;;;7.08;100.00;101186.16;5006992;28;20513;-73
2022/11/08 05:49:21;;;;;;;7.80;2.45;;;;;;;7.07;100.00;101199.22;5006648;28;20046;-71
2022/11/08 05:51:46;;;;;;;4.68;2.10;;;;;;;7.06;100.00;101194.97;5009803;28;20021;-72
2022/11/08 05:54:12;;;;;;;4.47;2.35;;;;;;;7.05;100.00;101203.69;5014227;28;20485;-73
2022/11/08 05:56:38;;;;;;;9.95;2.10;;;;;;;7.03;100.00;101202.97;5015943;28;20038;-73
2022/11/08 05:59:03;;;;;;;6.72;2.80;;;;;;;7.03;100.00;101192.59;5008201;28;20030;-73
2022/11/08 06:01:29;;;;;;;6.50;2.40;;;;;;;7.03;100.00;101198.59;5013408;28;20370;-72
2022/11/08 06:03:54;;;;;;;6.20;1.92;;;;;;;7.04;100.00;101207.22;5014589;28;20492;-72
2022/11/08 06:06:21;;;;;;;6.30;2.00;;;;;;;7.03;100.00;101202.97;5014157;28;20124;-73
2022/11/08 06:08:47;;;;;;;4.10;2.08;;;;;;;7.05;100.00;101203.69;5014131;28;20061;-73
2022/11/08 06:11:22;;;;;;;6.20;2.60;;;;;;;7.02;100.00;101211.66;5011477;28;20523;-72
2022/11/08 06:13:49;;;;;;;3.80;2.03;;;;;;;6.98;100.00;101200.69;5006427;28;20030;-72
2022/11/08 06:16:16;;;;;;;10.25;2.83;;;;;;;6.98;100.00;101203.28;5011637;28;20044;-73
2022/11/08 06:18:42;;;;;;;4.43;2.28;;;;;;;6.98;100.00;101211.88;5003557;28;20100;-72
2022/11/08 06:21:11;;;;;;;11.88;2.75;;;;;;;6.96;100.00;101205.13;5029641;28;20050;-72
2022/11/08 06:23:37;;;;;;;8.85;2.65;;;;;;;6.95;100.00;101203.47;5024802;28;20025;-72
2022/11/08 06:26:03;;;;;;;5.60;2.53;;;;;;;6.91;100.00;101200.25;5022479;28;20121;-72
2022/11/08 06:28:28;;;;;;;8.70;3.20;;;;;;;6.89;100.00;101212.47;5022142;28;20377;-73
2022/11/08 06:30:56;;;;;;;5.80;3.13;;;;;;;6.86;100.00;101202.31;5015442;28;20026;-72
2022/11/08 06:33:22;;;;;;;5.63;2.55;;;;;;;6.88;100.00;101205.66;5010238;28;20061;-72
2022/11/08 06:35:47;;;;;;;4.57;2.42;;;;;;;6.90;100.00;101208.97;5010091;28;20057;-73
2022/11/08 06:38:13;;;;;;;7.82;3.08;;;;;;;6.98;100.00;101208.44;5007769;28;20050;-72
2022/11/08 06:40:39;;;;;;;6.30;3.75;;;;;;;7.02;100.00;101211.66;5010781;28;20026;-72
2022/11/08 06:43:05;;;;;;;10.32;3.55;;;;;;;6.95;100.00;101217.25;5009869;28;20101;-72
2022/11/08 06:45:31;;;;;;;10.13;3.70;;;;;;;6.95;100.00;101222.44;5011025;28;20059;-72
2022/11/08 06:47:57;;;;;;;9.07;3.83;;;;;;;7.04;100.00;101226.19;5010917;28;20465;-71
2022/11/08 06:50:23;;;;;;;11.55;3.40;;;;;;;7.09;100.00;101224.06;5009479;28;20030;-72
2022/11/08 06:53:06;;;;;;;10.20;3.65;;;;;;;7.14;100.00;101228.94;5005961;28;20475;-73
2022/11/08 06:55:32;;;;;;;5.68;2.95;;;;;;;7.19;100.00;101229.47;5007481;28;20029;-72
2022/11/08 06:57:58;;;;;;;5.88;2.50;;;;;;;7.21;100.00;101228.44;5013466;28;20388;-68
2022/11/08 07:00:24;;;;;;;5.85;3.28;;;;;;;7.28;100.00;101239.22;5010045;28;20030;-68
2022/11/08 07:02:55;;;;;;;10.25;3.15;;;;;;;7.30;100.00;101239.94;5010640;28;20033;-68
2022/11/08 07:05:21;;;;;;;7.75;3.08;;;;;;;7.34;100.00;101236.22;5008124;28;20041;-72
2022/11/08 07:07:50;;;;;;;5.38;2.67;;;;;;;7.39;100.00;101238.50;5011407;28;20025;-72
2022/11/08 07:10:18;;;;;;;5.97;2.80;;;;;;;7.46;100.00;101244.91;5007752;28;20034;-72
2022/11/08 07:12:43;;;;;;;7.07;3.17;;;;;;;7.48;100.00;101241.28;5013095;28;20029;-73
2022/11/08 07:15:09;;;;;;;7.57;2.10;;;;;;;7.50;100.00;101242.00;5006753;28;20084;-72
2022/11/08 07:17:34;;;;;;;6.35;2.72;;;;;;;7.53;100.00;101243.56;5009544;28;20104;-72
2022/11/08 07:20:00;;;;;;;6.20;2.45;;;;;;;7.55;100.00;101247.72;5009009;28;20053;-72
2022/11/08 07:22:25;;;;;;;6.20;2.28;;;;;;;7.58;100.00;101238.88;5009606;28;20022;-71
2022/11/08 07:24:51;;;;;;;8.00;3.20;;;;;;;7.61;100.00;101242.06;5017539;28;20128;-72
2022/11/08 07:27:16;;;;;;;7.22;2.92;;;;;;;7.65;100.00;101243.53;5010735;28;20492;-71
2022/11/08 07:29:41;;;;;;;6.50;3.22;;;;;;;7.68;100.00;101252.03;5003808;28;20041;-73
2022/11/08 07:32:07;;;;;;;4.60;2.55;;;;;;;7.78;100.00;101242.66;5009558;28;20036;-71
2022/11/08 07:34:32;;;;;;;6.72;2.70;;;;;;;7.85;100.00;101246.50;5010135;28;20045;-71
2022/11/08 07:36:58;;;;;;;12.15;3.42;;;;;;;7.90;100.00;101241.81;5010122;28;20014;-71
2022/11/08 07:39:23;;;;;;;7.85;3.67;;;;;;;7.98;100.00;101247.28;5005356;28;20477;-71
2022/11/08 07:41:48;;;;;;;6.93;2.15;;;;;;;8.07;100.00;101241.41;5009839;28;20033;-69
2022/11/08 07:44:14;;;;;;;8.18;2.30;;;;;;;8.14;100.00;101250.44;5011710;28;20519;-69
2022/11/08 07:46:39;;;;;;;7.07;2.63;;;;;;;8.21;100.00;101243.03;5007901;28;20465;-69
2022/11/08 07:49:05;;;;;;;6.68;3.10;;;;;;;8.25;100.00;101250.50;5012243;28;20068;-70
2022/11/08 07:51:30;;;;;;;6.25;2.72;;;;;;;8.31;100.00;101239.69;5010293;28;20034;-70
2022/11/08 07:53:55;;;;;;;8.32;2.70;;;;;;;8.39;100.00;101239.16;5006940;28;20045;-70
2022/11/08 07:56:21;;;;;;;5.50;2.65;;;;;;;8.46;100.00;101234.34;5006863;28;20037;-72
2022/11/08 07:58:46;;;;;;;7.07;2.67;;;;;;;8.55;100.00;101238.84;5005488;28;20041;-70
2022/11/08 08:01:12;;;;;;;7.35;3.33;;;;;;;8.66;100.00;101231.09;5004003;28;20442;-70
2022/11/08 08:03:37;;;;;;;6.05;3.08;;;;;;;8.71;100.00;101244.56;5009387;28;20041;-70
2022/11/08 08:06:03;;;;;;;5.45;2.25;;;;;;;8.80;100.00;101237.88;5011678;28;20034;-70
2022/11/08 08:08:28;;;;;;;4.97;2.88;;;;;;;8.89;100.00;101240.63;5006986;28;20129;-69
2022/11/08 08:11:00;;;;;;;6.65;2.72;;;;;;;8.96;100.00;101239.22;5014082;28;20057;-70
2022/11/08 08:13:26;;;;;;;5.50;2.45;;;;;;;9.09;100.00;101240.88;5011662;28;20036;-69
2022/11/08 08:15:51;;;;;;;5.93;2.70;;;;;;;9.14;100.00;101246.53;5036303;28;20401;-71
2022/11/08 08:18:19;;;;;;;3.95;2.53;;;;;;;9.21;100.00;101242.53;5009519;28;21499;-70
2022/11/08 08:20:45;;;;;;;6.82;3.42;;;;;;;9.28;100.00;101244.56;5012099;28;20077;-71
2022/11/08 08:26:07;;;;;;;6.13;3.58;;;;;;;9.51;100.00;101242.78;5397349;23;20734;-75
2022/11/08 08:28:32;;;;;;;5.95;2.60;;;;;;;9.55;100.00;101246.78;5003001;23;20042;-88
2022/11/08 08:30:58;;;;;;;4.35;2.95;;;;;;;9.62;100.00;101247.97;4977661;28;20029;-88
2022/11/08 08:33:24;;;;;;;9.25;2.80;;;;;;;9.64;100.00;101243.47;4986776;28;20494;-88
2022/11/08 08:35:52;;;;;;;6.63;2.95;;;;;;;9.77;100.00;101248.56;4964181;28;20030;-90
2022/11/08 08:38:18;;;;;;;7.35;3.35;;;;;;;9.80;100.00;101247.50;4975551;28;20105;-88
2022/11/08 08:40:43;;;;;;;6.40;3.10;;;;;;;9.85;100.00;101248.78;4979124;28;20493;-88
2022/11/08 08:43:09;;;;;;;6.22;3.20;;;;;;;9.94;100.00;101250.66;4975725;28;20084;-87
2022/11/08 08:45:35;;;;;;;7.40;3.67;;;;;;;10.04;100.00;101240.34;4969572;28;20117;-88
2022/11/08 08:48:01;;;;;;;5.85;3.08;;;;;;;10.08;100.00;101238.31;4972212;28;20089;-87
2022/11/08 08:50:28;;;;;;;7.65;3.03;;;;;;;10.16;100.00;101241.97;4978404;28;20080;-87
2022/11/08 08:53:01;;;;;;;6.03;2.97;;;;;;;10.30;100.00;101244.31;4980950;28;20082;-87
2022/11/08 08:55:27;;;;;;;6.70;2.63;;;;;;;10.32;100.00;101251.19;4956593;28;20039;-87
2022/11/08 08:57:53;;;;;;;6.00;2.97;;;;;;;10.34;100.00;101244.09;4951951;28;20027;-87
2022/11/08 09:00:18;;;;;;;6.38;2.83;;;;;;;10.37;100.00;101243.84;4974397;28;20081;-87
2022/11/08 09:02:44;;;;;;;5.80;2.97;;;;;;;10.39;100.00;101247.97;4950291;28;20065;-87
2022/11/08 09:05:11;;;;;;;7.45;3.50;;;;;;;10.44;100.00;101250.19;4972057;28;20093;-87
2022/11/08 09:07:37;;;;;;;8.05;3.17;;;;;;;10.51;100.00;101246.94;4968054;28;20077;-87
2022/11/08 09:10:04;;;;;;;6.60;2.55;;;;;;;10.53;100.00;101249.44;4970376;28;20030;-88
2022/11/08 09:12:29;;;;;;;5.05;3.33;;;;;;;10.54;100.00;101246.69;4971852;28;20093;-86
2022/11/08 09:14:55;;;;;;;4.82;3.00;;;;;;;10.52;100.00;101247.78;4970205;28;20398;-87
2022/11/08 09:17:21;;;;;;;6.03;2.60;;;;;;;10.57;100.00;101250.84;4972780;28;20109;-86
2022/11/08 09:19:46;;;;;;;8.18;3.03;;;;;;;10.65;100.00;101243.22;4956851;28;20022;-87
2022/11/08 09:22:11;;;;;;;6.07;2.95;;;;;;;10.74;100.00;101244.25;4971927;28;20118;-86
2022/11/08 09:24:37;;;;;;;5.75;3.60;;;;;;;10.86;100.00;101236.25;4956412;28;20405;-87
2022/11/08 09:27:03;;;;;;;5.18;3.20;;;;;;;10.91;100.00;101246.25;4970107;28;20085;-87
2022/11/08 09:29:29;;;;;;;9.10;3.30;;;;;;;10.95;100.00;101245.88;4969246;28;20434;-87
2022/11/08 09:31:55;;;;;;;8.13;2.88;;;;;;;11.19;100.00;101245.63;4951720;28;20024;-87
2022/11/08 09:34:21;;;;;;;6.25;3.40;;;;;;;11.28;100.00;101252.66;4973667;28;20049;-87
2022/11/08 09:36:46;;;;;;;5.22;3.03;;;;;;;11.30;100.00;101248.16;4956344;28;20497;-87
2022/11/08 09:39:12;;;;;;;7.72;3.50;;;;;;;11.27;100.00;101252.81;4955721;28;20042;-87
2022/11/08 09:41:49;;;;;;;4.55;3.08;;;;;;;11.25;100.00;101254.72;4954756;28;20041;-86
2022/11/08 09:44:42;;;;;;;7.90;3.70;;;;;;;11.26;100.00;101254.59;4971105;28;20054;-86
2022/11/08 09:47:19;;;;;;;6.10;3.97;;;;;;;11.24;100.00;101242.63;4957027;28;20034;-87
2022/11/08 09:49:54;;;;;;;7.47;3.50;;;;;;;11.26;100.00;101248.53;4980635;28;20042;-87
2022/11/08 09:52:24;;;;;;;8.98;3.42;;;;;;;11.29;100.00;101251.72;4968943;28;20058;-87
2022/11/08 09:54:52;;;;;;;6.53;4.07;;;;;;;11.36;100.00;101244.16;4973437;28;20042;-86
2022/11/08 09:57:38;;;;;;;10.10;4.95;;;;;;;11.39;100.00;101248.31;4971964;28;20485;-86
2022/11/08 10:00:05;;;;;;;11.88;5.03;;;;;;;11.46;100.00;101245.03;4972873;28;20037;-86
2022/11/08 10:02:32;;;;;;;8.70;4.22;;;;;;;11.49;100.00;101247.38;4969971;28;20038;-87
2022/11/08 10:05:01;;;;;;;7.88;4.63;;;;;;;11.54;100.00;101234.78;4972869;28;20386;-86
2022/11/08 10:08:03;;;;;;;7.72;4.55;;;;;;;11.69;100.00;101240.47;4972797;28;20497;-86
2022/11/08 10:10:47;;;;;;;9.68;4.80;;;;;;;11.98;99.82;101243.16;4958332;28;20042;-86
2022/11/08 10:13:16;;;;;;;10.40;5.55;;;;;;;12.08;99.84;101235.34;4955125;28;20047;-87
2022/11/08 10:15:56;;;;;;;13.85;5.45;;;;;;;12.36;97.44;101234.53;4971887;28;20042;-87
2022/11/08 10:18:34;;;;;;;12.80;5.45;;;;;;;12.26;98.74;101237.16;4955902;28;20369;-87
2022/11/08 10:21:12;;;;;;;10.65;5.10;;;;;;;12.21;95.42;101234.13;4970187;28;20030;-87
2022/11/08 10:23:45;;;;;;;14.65;6.03;;;;;;;12.28;98.59;101232.63;4971626;28;20058;-87
2022/11/08 10:26:17;;;;;;;12.10;5.22;;;;;;;12.25;99.31;101229.47;4953786;28;20035;-87
2022/11/08 10:28:50;;;;;;;10.52;5.20;;;;;;;12.42;97.60;101228.75;4953525;28;20042;-87
2022/11/08 10:31:18;;;;;;;11.98;6.05;;;;;;;12.41;98.30;101226.28;4960513;28;20035;-86
2022/11/08 10:34:10;;;;;;;11.48;5.60;;;;;;;12.28;97.78;101221.34;4967281;28;20097;-86
2022/11/08 10:36:47;;;;;;;13.05;5.28;;;;;;;12.28;99.07;101224.78;4971673;28;20115;-86
2022/11/08 10:39:31;;;;;;;12.40;5.80;;;;;;;12.36;98.93;101228.47;4970010;28;20045;-86
2022/11/08 10:42:01;;;;;;;13.27;5.65;;;;;;;12.36;100.00;101220.66;4972802;28;20034;-87
2022/11/08 10:44:27;;;;;;;12.35;5.97;;;;;;;12.38;100.00;101224.78;4955343;28;20030;-86
2022/11/08 10:46:55;;;;;;;14.32;6.22;;;;;;;12.45;99.47;101220.66;4956975;28;20146;-86
2022/11/08 10:49:33;;;;;;;15.77;7.00;;;;;;;12.46;99.16;101224.09;4974808;28;20060;-86
2022/11/08 10:52:11;;;;;;;11.90;6.50;;;;;;;12.48;99.93;101219.53;4968465;28;20026;-87
2022/11/08 10:54:46;;;;;;;14.52;7.25;;;;;;;12.50;97.49;101217.63;4958226;28;20034;-87
2022/11/08 10:57:30;;;;;;;14.35;7.53;;;;;;;12.56;97.55;101209.22;4953186;28;20067;-87
2022/11/08 10:59:56;;;;;;;13.27;6.53;;;;;;;12.58;98.53;101207.28;4972127;28;20609;-87
2022/11/08 11:02:30;;;;;;;16.02;7.40;;;;;;;12.83;97.42;101205.88;4972564;28;20426;-87
2022/11/08 11:05:14;;;;;;;19.17;7.13;;;;;;;13.01;94.68;101209.41;4970545;28;20031;-87
2022/11/08 11:07:43;;;;;;;17.38;7.72;;;;;;;13.02;95.80;101199.78;4966341;28;20023;-87
2022/11/08 11:10:28;;;;;;;14.95;7.55;;;;;;;12.95;94.09;101197.72;4953368;28;20034;-86
2022/11/08 11:13:08;;;;;;;15.05;7.97;;;;;;;12.94;95.70;101197.84;4970976;28;20547;-87
2022/11/08 11:15:50;;;;;;;17.27;8.30;;;;;;;12.94;95.07;101198.69;4970957;28;20038;-86
2022/11/08 11:18:34;;;;;;;14.65;8.07;;;;;;;12.92;95.48;101190.16;4969836;28;20125;-86
2022/11/08 11:21:09;;;;;;;15.60;8.55;;;;;;;12.92;95.03;101190.16;4972022;28;20114;-87
2022/11/08 11:23:45;;;;;;;13.20;7.50;;;;;;;12.92;95.80;101191.94;4971275;28;20120;-86
2022/11/08 11:26:28;;;;;;;12.30;6.72;;;;;;;12.94;96.17;101187.41;4954502;28;20041;-87
2022/11/08 11:29:15;;;;;;;14.48;7.20;;;;;;;13.01;94.63;101183.25;4963898;28;20560;-86
2022/11/08 11:31:43;;;;;;;12.90;7.32;;;;;;;13.10;96.23;101184.19;4971013;28;20097;-86
2022/11/08 11:34:36;;;;;;;16.23;7.53;;;;;;;13.05;94.69;101178.56;4970494;28;20113;-87
2022/11/08 11:37:16;;;;;;;16.30;8.45;;;;;;;13.27;94.42;101180.81;4963709;28;20038;-87
2022/11/08 11:40:02;;;;;;;12.45;6.68;;;;;;;13.61;93.66;101176.66;4954675;28;20042;-87
2022/11/08 11:42:51;;;;;;;12.15;6.63;;;;;;;13.58;94.02;101170.91;4948429;28;20058;-87
2022/11/08 11:45:28;;;;;;;14.38;7.13;;;;;;;13.51;95.78;101172.44;4975690;28;20027;-87
2022/11/08 11:48:01;;;;;;;14.18;8.00;;;;;;;13.42;95.85;101171.53;4978750;28;20042;-87
2022/11/08 11:50:35;;;;;;;15.02;8.02;;;;;;;13.38;96.52;101170.16;4976436;28;20058;-87
2022/11/08 11:53:05;;;;;;;14.48;8.05;;;;;;;13.40;97.58;101170.84;4975731;28;20112;-87